Terminal Aerodrome Forecast
Issued by NWS

Home | Current Version | Previous Version | Text Only | Print | Product List | Glossary On
Versions: 1 2 3 4 5 6 7 8 9 10 11 12 13 14 15 16 17 18 19 20 21 22 23 24 25 26 27 28 29 30 31
371
FTUS41 KCAR 291153 AAA
TAFBHB
TAF AMD
KBHB 291153Z 2912/3012 00000KT 3SM BR SCT004 BKN012
     FM291300 23006KT P6SM VCSH OVC035
     FM291800 24010G18KT P6SM SCT045
     FM292000 24011G21KT P6SM SCT070
     FM292200 28013G23KT P6SM FEW130
     FM300300 32010G18KT P6SM FEW250
     FM300700 32006KT P6SM SCT250
      AMD NOT SKED=

USA.gov is the U.S. government's official web portal to all federal, state and local government web resources and services.